Pagrindinis puslapis
METAR-TAF:

METAR-TAF

Oro uostai :

Kororas, Babeltuapas, Palau

platuma: 07-22N, ilguma: 134-32E, Aukštis: 54 m

Dabartinis oras

Ataskaita buvo paskelbta 7 minutes, ne 03:50 UTC
Vėjas 4 kt iš Vakarų
Temperatūra 28°C
Drėgmė 79%
Slėgis 1012 hPa
Matomumas: 22.5 km
Su prošvaistėmis ne aukštis 1600 ft
Su prošvaistėmis ne aukštis 12000 ft
Su prošvaistėmis ne aukštis 30000 ft

METAR: PTRO 220350Z 27004KT 14SM BKN016 BKN120 BKN300 28/24 A2988

Laikas: 12:57 (03:57 UTC)

Prognozė

Ataskaita buvo paskelbta 33 minutes, ne 03:24 UTC
Prognozė galioja nuo 22 metu 03 UTC su 22 metu 24 UTC
Vėjas 4 kt nuo kintamojo kryptimis
Matomumas: 10 km
Išsisklaidę debesys ne aukštis 1500 ft
Su prošvaistėmis ne aukštis 12000 ft
Liūtis kaimynystėje
Laikinai
nuo 22 metu 03 UTC su 22 metu 06 UTC
Matomumas: 6.4 km
Su prošvaistėmis ne aukštis 1500 ft
Su prošvaistėmis ne aukštis 12000 ft
lietus

TAF: PTRO 220324Z 2203/2224 VRB04KT P6SM VCSH SCT015 BKN120 TEMPO 2203/2206 4SM SHRA BKN015 BKN120

Orai ataskaitas ir orų prognozės (METAR, TAF).

turimą stotys yra geltonos ir raudonos taškus žemėlapyje.

Perkelti pele per norėdami pamatyti stoties vardą.

Tada spustelėkite, norėdami matyti oro stebėjimo ir prognozės.

Norėdami pakeisti žemėlapį: spustelėkite ant žalios mygtukų su juodo kryžiaus žemyn,; žalią mygtuką su brūkšneliu, jei norite nutolinti; arba žalių rodyklių gretimoms žemėlapius.


METAR-TAF: